createdAt,value
2022-09-06T00:00:58.312Z,101672.69
2022-09-06T00:03:28.078Z,101676.13
2022-09-06T00:05:55.014Z,101673.75
2022-09-06T00:08:21.505Z,101661.13
2022-09-06T00:10:48.034Z,101663.50
2022-09-06T00:13:14.677Z,101665.34
2022-09-06T00:15:41.232Z,101660.34
2022-09-06T00:18:08.485Z,101654.81
2022-09-06T00:20:36.641Z,101657.19
2022-09-06T00:23:05.589Z,101655.88
2022-09-06T00:25:32.467Z,101654.81
2022-09-06T00:28:06.271Z,101657.19
2022-09-06T00:30:33.849Z,101663.25
2022-09-06T00:33:00.436Z,101659.81
2022-09-06T00:35:29.090Z,101660.63
2022-09-06T00:38:00.594Z,101651.16
2022-09-06T00:40:29.436Z,101654.31
2022-09-06T00:42:57.486Z,101650.09
2022-09-06T00:45:26.865Z,101655.63
2022-09-06T00:47:53.653Z,101641.94
2022-09-06T00:50:20.302Z,101652.47
2022-09-06T00:52:50.053Z,101645.63
2022-09-06T00:55:16.920Z,101640.09
2022-09-06T00:57:44.126Z,101643.00
2022-09-06T01:00:10.896Z,101645.63
2022-09-06T01:02:37.529Z,101643.22
2022-09-06T01:05:05.545Z,101637.16
2022-09-06T01:08:24.488Z,101636.66
2022-09-06T01:11:09.231Z,101635.59
2022-09-06T01:13:51.203Z,101633.47
2022-09-06T01:16:40.103Z,101631.91
2022-09-06T01:19:33.000Z,101641.38
2022-09-06T01:22:28.261Z,101647.16
2022-09-06T01:25:28.124Z,101648.72
2022-09-06T01:28:23.712Z,101653.50
2022-09-06T01:31:25.540Z,101651.63
2022-09-06T01:34:03.877Z,101653.75
2022-09-06T01:36:45.779Z,101645.84
2022-09-06T01:39:33.011Z,101649.78
2022-09-06T01:42:07.038Z,101659.78
2022-09-06T01:44:36.049Z,101651.63
2022-09-06T01:47:16.460Z,101654.25
2022-09-06T01:49:58.093Z,101641.34
2022-09-06T01:52:39.407Z,101642.69
2022-09-06T01:55:24.382Z,101635.31
2022-09-06T01:57:56.838Z,101634.78
2022-09-06T02:00:23.731Z,101626.88
2022-09-06T02:03:20.098Z,101634.50
2022-09-06T02:05:51.842Z,101627.13
2022-09-06T02:08:31.606Z,101624.78
2022-09-06T02:11:01.671Z,101626.88
2022-09-06T02:13:35.210Z,101621.06
2022-09-06T02:16:04.366Z,101620.81
2022-09-06T02:18:48.099Z,101618.97
2022-09-06T02:21:18.297Z,101629.75
2022-09-06T02:23:47.277Z,101626.31
2022-09-06T02:26:27.484Z,101636.34
2022-09-06T02:28:54.837Z,101633.69
2022-09-06T02:31:48.896Z,101621.56
2022-09-06T02:34:18.296Z,101625.00
2022-09-06T02:36:45.670Z,101613.16
2022-09-06T02:39:12.563Z,101616.84
2022-09-06T02:41:43.560Z,101631.81
2022-09-06T02:44:10.026Z,101627.38
2022-09-06T02:46:36.554Z,101627.88
2022-09-06T02:49:03.703Z,101613.94
2022-09-06T02:51:30.203Z,101626.28
2022-09-06T02:53:56.873Z,101622.38
2022-09-06T02:56:23.400Z,101615.75
2022-09-06T02:58:49.931Z,101611.31
2022-09-06T03:01:16.403Z,101612.34
2022-09-06T03:03:42.897Z,101614.44
2022-09-06T03:06:09.346Z,101607.09
2022-09-06T03:08:36.535Z,101603.91
2022-09-06T03:11:03.044Z,101603.66
2022-09-06T03:13:29.880Z,101601.75
2022-09-06T03:15:58.706Z,101606.78
2022-09-06T03:18:26.897Z,101598.88
2022-09-06T03:20:54.296Z,101597.84
2022-09-06T03:23:23.595Z,101599.38
2022-09-06T03:25:50.266Z,101603.59
2022-09-06T03:28:18.340Z,101609.63
2022-09-06T03:30:46.122Z,101613.84
2022-09-06T03:33:12.789Z,101605.69
2022-09-06T03:35:39.655Z,101603.31
2022-09-06T03:38:06.077Z,101603.59
2022-09-06T03:40:32.557Z,101604.38
2022-09-06T03:42:59.036Z,101600.41
2022-09-06T03:45:25.557Z,101609.06
2022-09-06T03:47:52.093Z,101600.91
2022-09-06T03:50:18.512Z,101604.31
2022-09-06T03:52:44.947Z,101592.50
2022-09-06T03:55:12.009Z,101591.72
2022-09-06T03:57:38.479Z,101592.75
2022-09-06T04:00:05.443Z,101590.38
2022-09-06T04:02:38.064Z,101584.88
2022-09-06T04:05:04.827Z,101592.19
2022-09-06T04:07:31.268Z,101596.44
2022-09-06T04:09:57.681Z,101593.25
2022-09-06T04:12:24.119Z,101592.97
2022-09-06T04:14:50.591Z,101587.72
2022-09-06T04:17:17.151Z,101581.94
2022-09-06T04:19:43.669Z,101589.56
2022-09-06T04:22:10.097Z,101583.78
2022-09-06T04:24:36.578Z,101578.22
2022-09-06T04:27:03.038Z,101584.81
2022-09-06T04:29:29.552Z,101576.66
2022-09-06T04:31:56.090Z,101569.03
2022-09-06T04:34:22.611Z,101575.59
2022-09-06T04:36:49.051Z,101574.81
2022-09-06T04:39:15.519Z,101563.50
2022-09-06T04:41:42.648Z,101566.41
2022-09-06T04:44:09.469Z,101565.06
2022-09-06T04:46:35.977Z,101554.28
2022-09-06T04:49:02.560Z,101561.66
2022-09-06T04:51:29.047Z,101572.41
2022-09-06T04:53:55.545Z,101564.25
2022-09-06T04:56:24.102Z,101559.50
2022-09-06T04:58:52.370Z,101566.34
2022-09-06T05:01:19.011Z,101549.00
2022-09-06T05:03:45.769Z,101562.63
2022-09-06T05:06:18.584Z,101566.34
2022-09-06T05:08:45.051Z,101572.13
2022-09-06T05:11:11.506Z,101575.53
2022-09-06T05:13:38.265Z,101586.56
2022-09-06T05:16:06.698Z,101587.59
2022-09-06T05:18:34.171Z,101578.63
2022-09-06T05:21:00.759Z,101574.19
2022-09-06T05:23:28.120Z,101571.56
2022-09-06T05:25:55.042Z,101585.50
2022-09-06T05:28:21.680Z,101586.00
2022-09-06T05:30:48.212Z,101578.38
2022-09-06T05:33:20.097Z,101585.75
2022-09-06T05:35:46.575Z,101591.78
2022-09-06T05:38:13.061Z,101594.69
2022-09-06T05:40:39.850Z,101585.19
2022-09-06T05:43:06.313Z,101583.38
2022-09-06T05:45:32.859Z,101576.00
2022-09-06T05:47:59.349Z,101573.38
2022-09-06T05:50:25.818Z,101573.63
2022-09-06T05:52:54.203Z,101582.56
2022-09-06T05:55:20.629Z,101582.56
2022-09-06T05:57:47.104Z,101581.00
2022-09-06T06:00:13.988Z,101579.41
2022-09-06T06:02:40.618Z,101574.94
2022-09-06T06:05:07.966Z,101575.22
2022-09-06T06:07:34.795Z,101575.22
2022-09-06T06:10:01.272Z,101582.56
2022-09-06T06:12:27.955Z,101577.84
2022-09-06T06:14:54.414Z,101580.19
2022-09-06T06:17:20.888Z,101569.97
2022-09-06T06:19:47.519Z,101568.38
2022-09-06T06:22:13.987Z,101569.19
2022-09-06T06:24:40.482Z,101564.69
2022-09-06T06:27:06.928Z,101566.03
2022-09-06T06:29:33.404Z,101569.19
2022-09-06T06:31:59.976Z,101566.81
2022-09-06T06:34:26.449Z,101568.41
2022-09-06T06:36:52.897Z,101581.53
2022-09-06T06:39:19.362Z,101573.94
2022-09-06T06:41:45.936Z,101570.25
2022-09-06T06:44:28.320Z,101570.53
2022-09-06T06:46:57.811Z,101571.31
2022-09-06T06:49:24.902Z,101565.81
2022-09-06T06:51:51.363Z,101562.13
2022-09-06T06:54:17.826Z,101563.72
2022-09-06T06:56:45.573Z,101562.69
2022-09-06T06:59:12.103Z,101556.91
2022-09-06T07:01:39.036Z,101555.06
2022-09-06T07:04:06.009Z,101558.75
2022-09-06T07:12:19.165Z,101555.63
2022-09-06T07:14:45.613Z,101558.78
2022-09-06T07:17:12.038Z,101563.75
2022-09-06T07:22:25.036Z,101566.13
2022-09-06T07:24:51.683Z,101565.09
2022-09-06T07:30:04.801Z,101563.25
2022-09-06T07:32:34.323Z,101565.09
2022-09-06T07:35:00.780Z,101557.25
2022-09-06T07:37:27.198Z,101554.88
2022-09-06T07:39:53.822Z,101562.78
2022-09-06T07:42:20.320Z,101558.56
2022-09-06T07:44:46.801Z,101555.94
2022-09-06T07:55:35.566Z,101562.25
2022-09-06T07:58:02.043Z,101561.47
2022-09-06T08:00:28.585Z,101567.53
2022-09-06T08:02:55.048Z,101565.69
2022-09-06T08:10:54.420Z,101572.53
2022-09-06T08:13:20.935Z,101574.91
2022-09-06T08:15:47.471Z,101571.25
2022-09-06T08:18:14.022Z,101572.81
2022-09-06T08:20:40.572Z,101577.56
2022-09-06T08:23:10.541Z,101584.41
2022-09-06T08:25:37.086Z,101583.09
2022-09-06T08:28:03.718Z,101582.03
2022-09-06T08:30:30.610Z,101578.38
2022-09-06T08:32:57.090Z,101581.03
2022-09-06T08:35:23.536Z,101578.94
2022-09-06T08:37:49.962Z,101573.44
2022-09-06T08:40:21.210Z,101570.78
2022-09-06T08:42:48.540Z,101568.44
2022-09-06T08:45:21.728Z,101567.13
2022-09-06T08:47:50.672Z,101560.03
2022-09-06T08:50:17.445Z,101557.66
2022-09-06T08:53:16.859Z,101569.78
2022-09-06T08:56:03.168Z,101559.78
2022-09-06T08:58:42.175Z,101567.94
2022-09-06T09:01:17.136Z,101572.13
2022-09-06T09:03:44.596Z,101576.34
2022-09-06T09:06:11.411Z,101579.25
2022-09-06T09:08:52.851Z,101576.34
2022-09-06T09:11:22.433Z,101577.94
2022-09-06T09:13:59.218Z,101577.66
2022-09-06T09:16:26.048Z,101571.63
2022-09-06T09:18:56.071Z,101574.28
2022-09-06T09:21:30.216Z,101570.31
2022-09-06T09:24:01.798Z,101572.94
2022-09-06T09:26:36.799Z,101571.63
2022-09-06T09:29:14.459Z,101572.94
2022-09-06T09:31:53.474Z,101562.44
2022-09-06T09:34:40.518Z,101562.69
2022-09-06T09:40:15.229Z,101547.94
2022-09-06T09:42:42.409Z,101549.75
2022-09-06T09:45:20.888Z,101533.97
2022-09-06T09:47:47.419Z,101527.13
2022-09-06T09:50:29.145Z,101524.50
2022-09-06T09:52:56.129Z,101520.00
2022-09-06T09:55:25.805Z,101515.56
2022-09-06T09:57:54.217Z,101504.50
2022-09-06T10:01:11.701Z,101496.84
2022-09-06T10:09:22.783Z,101484.44
2022-09-06T10:11:55.806Z,101486.50
2022-09-06T10:14:44.124Z,101478.06
2022-09-06T10:17:28.627Z,101487.53
2022-09-06T10:19:55.132Z,101488.88
2022-09-06T10:22:35.404Z,101497.28
2022-09-06T10:25:36.153Z,101495.94
2022-09-06T10:28:27.764Z,101510.91
2022-09-06T10:31:28.603Z,101497.19
2022-09-06T10:34:07.228Z,101500.31
2022-09-06T10:36:58.890Z,101495.81
2022-09-06T10:39:50.284Z,101476.81
2022-09-06T10:42:26.727Z,101481.50
2022-09-06T10:45:24.234Z,101486.47
2022-09-06T10:48:14.908Z,101486.47
2022-09-06T10:50:47.607Z,101479.31
2022-09-06T10:53:27.454Z,101473.50
2022-09-06T10:56:05.083Z,101474.25
2022-09-06T11:01:40.291Z,101464.97
2022-09-06T11:04:13.073Z,101457.81
2022-09-06T11:06:55.877Z,101458.81
2022-09-06T11:09:34.140Z,101452.19
2022-09-06T11:12:14.208Z,101447.97
2022-09-06T11:14:41.412Z,101450.53
2022-09-06T11:17:32.731Z,101454.22
2022-09-06T11:20:14.855Z,101451.28
2022-09-06T11:23:11.678Z,101450.16
2022-09-06T11:26:04.399Z,101454.88
2022-09-06T11:28:42.302Z,101458.78
2022-09-06T11:34:10.096Z,101456.13
2022-09-06T11:36:46.599Z,101455.81
2022-09-06T11:39:13.782Z,101458.41
2022-09-06T11:41:42.422Z,101452.88
2022-09-06T11:44:10.510Z,101463.38
2022-09-06T11:46:57.468Z,101460.22
2022-09-06T11:49:32.210Z,101475.19
2022-09-06T11:51:59.463Z,101470.97
2022-09-06T11:54:38.169Z,101464.63
2022-09-06T11:57:07.634Z,101459.56
2022-09-06T11:59:41.616Z,101468.50
2022-09-06T12:02:36.935Z,101455.56
2022-09-06T12:05:07.048Z,101445.75
2022-09-06T12:07:36.235Z,101445.97
2022-09-06T12:10:31.614Z,101441.28
2022-09-06T12:12:58.830Z,101437.28
2022-09-06T12:15:29.547Z,101429.56
2022-09-06T12:17:57.915Z,101427.69
2022-09-06T12:20:48.942Z,101434.84
2022-09-06T12:23:34.382Z,101420.56
2022-09-06T12:26:42.481Z,101419.75
2022-09-06T12:29:11.036Z,101416.56
2022-09-06T12:31:52.197Z,101419.69
2022-09-06T12:34:29.085Z,101422.59
2022-09-06T12:36:59.050Z,101406.19
2022-09-06T12:39:26.505Z,101407.00
2022-09-06T12:42:11.182Z,101402.28
2022-09-06T12:44:42.828Z,101389.28
2022-09-06T12:47:19.271Z,101394.00
2022-09-06T12:49:45.728Z,101385.28
2022-09-06T12:52:19.333Z,101385.28
2022-09-06T12:54:50.216Z,101377.38
2022-09-06T12:57:23.889Z,101377.38
2022-09-06T12:59:57.187Z,101375.25
2022-09-06T13:02:26.445Z,101371.81
2022-09-06T13:05:02.604Z,101366.53
2022-09-06T13:07:31.601Z,101362.06
2022-09-06T13:09:58.619Z,101363.63
2022-09-06T13:12:26.298Z,101364.97
2022-09-06T13:14:59.403Z,101373.69
2022-09-06T13:17:28.617Z,101368.13
2022-09-06T13:19:55.959Z,101381.06
2022-09-06T13:23:11.547Z,101376.34
2022-09-06T13:25:52.310Z,101376.34
2022-09-06T13:28:33.498Z,101364.00
2022-09-06T13:31:20.460Z,101374.00
2022-09-06T13:33:57.699Z,101371.63
2022-09-06T13:36:27.980Z,101390.88
2022-09-06T13:38:55.582Z,101397.47
2022-09-06T13:41:24.800Z,101393.25
2022-09-06T13:44:04.268Z,101389.56
2022-09-06T13:46:33.222Z,101395.38
2022-09-06T13:48:59.822Z,101394.00
2022-09-06T13:51:26.545Z,101393.47
2022-09-06T13:54:08.258Z,101386.88
2022-09-06T13:56:35.138Z,101388.19
2022-09-06T13:59:02.384Z,101389.22
2022-09-06T14:01:29.467Z,101390.81
2022-09-06T14:03:56.262Z,101380.75
2022-09-06T14:06:22.886Z,101384.47
2022-09-06T14:09:06.379Z,101375.75
2022-09-06T14:11:34.511Z,101384.69
2022-09-06T14:14:01.031Z,101389.16
2022-09-06T14:16:27.490Z,101391.50
2022-09-06T14:18:54.071Z,101397.56
2022-09-06T14:21:20.527Z,101390.97
2022-09-06T14:23:51.577Z,101385.16
2022-09-06T14:26:19.251Z,101382.50
2022-09-06T14:28:45.749Z,101376.69
2022-09-06T14:31:15.159Z,101374.56
2022-09-06T14:33:42.127Z,101366.59
2022-09-06T14:36:11.855Z,101365.06
2022-09-06T14:38:40.305Z,101375.31
2022-09-06T14:41:08.386Z,101363.69
2022-09-06T14:43:35.834Z,101363.16
2022-09-06T14:46:07.661Z,101366.59
2022-09-06T14:48:37.186Z,101369.78
2022-09-06T14:51:21.776Z,101360.78
2022-09-06T14:53:51.945Z,101353.09
2022-09-06T14:56:19.621Z,101360.50
2022-09-06T14:58:46.646Z,101352.34
2022-09-06T15:01:21.280Z,101342.25
2022-09-06T15:03:51.770Z,101340.72
2022-09-06T15:06:21.395Z,101335.13
2022-09-06T15:08:48.922Z,101342.25
2022-09-06T15:11:29.712Z,101336.44
2022-09-06T15:13:57.043Z,101335.34
2022-09-06T15:16:23.650Z,101333.00
2022-09-06T15:18:50.397Z,101328.75
2022-09-06T15:21:17.261Z,101323.72
2022-09-06T15:23:44.046Z,101321.84
2022-09-06T15:26:12.328Z,101320.25
2022-09-06T15:28:39.962Z,101320.25
2022-09-06T15:31:07.393Z,101324.75
2022-09-06T15:33:35.779Z,101328.44
2022-09-06T15:36:08.253Z,101312.31
2022-09-06T15:38:45.331Z,101321.03
2022-09-06T15:41:17.363Z,101311.00
2022-09-06T15:43:47.206Z,101311.00
2022-09-06T15:46:15.845Z,101316.81
2022-09-06T15:48:53.234Z,101315.47
2022-09-06T15:51:22.652Z,101319.94
2022-09-06T15:53:49.218Z,101304.16
2022-09-06T15:56:17.115Z,101311.78
2022-09-06T15:58:45.715Z,101302.50
2022-09-06T16:01:18.629Z,101302.50
2022-09-06T16:03:48.886Z,101301.16
2022-09-06T16:09:07.579Z,101302.28
2022-09-06T16:11:36.570Z,101306.75
2022-09-06T16:14:09.242Z,101307.53
2022-09-06T16:16:37.031Z,101297.78
2022-09-06T16:19:03.706Z,101300.94
2022-09-06T16:21:32.910Z,101295.13
2022-09-06T16:24:05.593Z,101289.53
2022-09-06T16:26:35.750Z,101291.69
2022-09-06T16:29:03.871Z,101282.41
2022-09-06T16:31:30.493Z,101279.03
2022-09-06T16:33:57.899Z,101290.88
2022-09-06T16:36:24.875Z,101292.44
2022-09-06T16:38:51.990Z,101291.13
2022-09-06T16:41:40.341Z,101288.22
2022-09-06T16:44:08.577Z,101283.19
2022-09-06T16:46:35.143Z,101287.97
2022-09-06T16:49:02.890Z,101285.06
2022-09-06T16:51:31.116Z,101288.22
2022-09-06T16:53:58.963Z,101278.47
2022-09-06T16:56:28.468Z,101282.41
2022-09-06T16:58:57.424Z,101279.25
2022-09-06T17:01:25.498Z,101286.41
2022-09-06T17:03:52.768Z,101280.59
2022-09-06T17:06:20.436Z,101279.03
2022-09-06T17:08:47.596Z,101278.81
2022-09-06T17:11:17.230Z,101269.81
2022-09-06T17:13:46.002Z,101265.16
2022-09-06T17:16:32.331Z,101274.09
2022-09-06T17:19:01.108Z,101265.16
2022-09-06T17:21:29.020Z,101268.06
2022-09-06T17:23:55.834Z,101265.69
2022-09-06T17:26:22.747Z,101262.78
2022-09-06T17:28:50.349Z,101266.25
2022-09-06T17:31:22.256Z,101264.66
2022-09-06T17:33:50.519Z,101258.38
2022-09-06T17:36:21.186Z,101255.81
2022-09-06T17:38:52.817Z,101255.25
2022-09-06T17:41:51.071Z,101266.72
2022-09-06T17:44:20.026Z,101267.53
2022-09-06T17:47:09.245Z,101266.50
2022-09-06T17:49:33.855Z,101270.50
2022-09-06T17:52:00.315Z,101272.63
2022-09-06T17:54:27.849Z,101263.44
2022-09-06T17:56:54.303Z,101252.63
2022-09-06T17:59:20.888Z,101252.91
2022-09-06T18:01:47.509Z,101262.97
2022-09-06T18:04:14.938Z,101254.03
2022-09-06T18:06:43.061Z,101255.13
2022-09-06T18:09:14.717Z,101251.19
2022-09-06T18:11:44.447Z,101256.53
2022-09-06T18:14:15.903Z,101261.34
2022-09-06T18:16:45.223Z,101249.50
2022-09-06T18:19:12.312Z,101247.69
2022-09-06T18:21:41.001Z,101251.66
2022-09-06T18:24:09.459Z,101256.44
2022-09-06T18:26:37.337Z,101259.66
2022-09-06T18:29:06.948Z,101261.50
2022-09-06T18:31:33.619Z,101264.19
2022-09-06T18:34:01.350Z,101267.63
2022-09-06T18:36:31.997Z,101255.84
2022-09-06T18:39:04.593Z,101264.81
2022-09-06T18:41:51.203Z,101268.28
2022-09-06T18:44:17.952Z,101267.78
2022-09-06T18:46:44.731Z,101262.63
2022-09-06T18:49:14.147Z,101273.41
2022-09-06T18:51:41.414Z,101271.88
2022-09-06T18:54:08.325Z,101260.53
2022-09-06T18:56:34.830Z,101276.13
2022-09-06T18:59:02.071Z,101275.91
2022-09-06T19:01:30.164Z,101274.34
2022-09-06T19:04:00.921Z,101276.75
2022-09-06T19:06:29.609Z,101279.66
2022-09-06T19:09:01.060Z,101274.94
2022-09-06T19:11:28.269Z,101277.63
2022-09-06T19:13:56.743Z,101274.47
2022-09-06T19:16:24.992Z,101276.66
2022-09-06T19:18:51.766Z,101282.75
2022-09-06T19:21:19.881Z,101287.00
2022-09-06T19:23:53.682Z,101289.88
2022-09-06T19:26:22.331Z,101273.34
2022-09-06T19:28:56.036Z,101278.31
2022-09-06T19:31:24.661Z,101273.59
2022-09-06T19:33:51.971Z,101277.84
2022-09-06T19:36:19.944Z,101269.47
2022-09-06T19:39:02.477Z,101261.03
2022-09-06T19:41:31.001Z,101262.38
2022-09-06T19:43:58.378Z,101265.53
2022-09-06T19:46:25.182Z,101264.53
2022-09-06T19:48:54.017Z,101265.06
2022-09-06T19:51:20.866Z,101258.22
2022-09-06T19:53:55.114Z,101256.69
2022-09-06T19:56:24.543Z,101249.06
2022-09-06T19:58:56.037Z,101244.34
2022-09-06T20:01:24.065Z,101243.28
2022-09-06T20:03:50.939Z,101243.06
2022-09-06T20:06:17.394Z,101243.59
2022-09-06T20:08:44.081Z,101240.19
2022-09-06T20:11:12.709Z,101239.44
2022-09-06T20:13:40.348Z,101236.28
2022-09-06T20:16:08.615Z,101245.53
2022-09-06T20:18:35.530Z,101241.59
2022-09-06T20:21:02.474Z,101246.91
2022-09-06T20:23:30.266Z,101242.19
2022-09-06T20:26:05.544Z,101239.84
2022-09-06T20:28:33.347Z,101244.03
2022-09-06T20:31:02.231Z,101242.22
2022-09-06T20:33:29.746Z,101231.97
2022-09-06T20:35:58.068Z,101241.22
2022-09-06T20:38:25.473Z,101240.16
2022-09-06T20:41:12.430Z,101231.78
2022-09-06T20:43:40.174Z,101233.91
2022-09-06T20:46:14.702Z,101233.63
2022-09-06T20:48:44.703Z,101227.59
2022-09-06T20:51:18.950Z,101234.69
2022-09-06T20:53:48.418Z,101227.09
2022-09-06T20:56:17.326Z,101221.81
2022-09-06T20:58:48.778Z,101217.91
2022-09-06T21:01:19.344Z,101212.13
2022-09-06T21:03:45.926Z,101209.53
2022-09-06T21:06:12.529Z,101207.16
2022-09-06T21:08:42.783Z,101201.91
2022-09-06T21:11:09.945Z,101201.63
2022-09-06T21:13:36.988Z,101196.38
2022-09-06T21:16:04.506Z,101194.03
2022-09-06T21:18:32.072Z,101196.69
2022-09-06T21:21:01.620Z,101195.13
2022-09-06T21:23:30.411Z,101197.75
2022-09-06T21:26:05.488Z,101185.16
2022-09-06T21:28:35.663Z,101183.31
2022-09-06T21:31:09.794Z,101189.09
2022-09-06T21:33:42.250Z,101183.06
2022-09-06T21:36:13.744Z,101184.13
2022-09-06T21:38:48.237Z,101185.44
2022-09-06T21:41:16.566Z,101184.69
2022-09-06T21:43:43.675Z,101184.16
2022-09-06T21:46:18.424Z,101188.38
2022-09-06T21:48:50.315Z,101187.59
2022-09-06T21:51:20.263Z,101179.97
2022-09-06T21:53:48.335Z,101188.66
2022-09-06T21:56:15.908Z,101179.75
2022-09-06T21:58:42.416Z,101175.25
2022-09-06T22:01:09.004Z,101176.34
2022-09-06T22:03:40.193Z,101177.69
2022-09-06T22:06:10.258Z,101170.84
2022-09-06T22:08:37.037Z,101156.66
2022-09-06T22:11:18.344Z,101158.25
2022-09-06T22:13:46.042Z,101152.47
2022-09-06T22:16:14.679Z,101153.53
2022-09-06T22:18:41.631Z,101165.09
2022-09-06T22:21:10.882Z,101157.72
2022-09-06T22:23:38.471Z,101152.25
2022-09-06T22:26:11.694Z,101153.00
2022-09-06T22:28:38.480Z,101159.88
2022-09-06T22:31:05.310Z,101153.84
2022-09-06T22:33:31.829Z,101155.44
2022-09-06T22:36:00.430Z,101147.81
2022-09-06T22:38:28.373Z,101145.16
2022-09-06T22:40:55.048Z,101145.47
2022-09-06T22:43:21.470Z,101146.00
2022-09-06T22:45:51.821Z,101150.19
2022-09-06T22:48:18.783Z,101159.66
2022-09-06T22:50:45.619Z,101161.00
2022-09-06T22:53:12.471Z,101151.50
2022-09-06T22:55:39.081Z,101146.78
2022-09-06T22:58:05.906Z,101136.78
2022-09-06T23:00:35.984Z,101135.22
2022-09-06T23:03:02.688Z,101134.44
2022-09-06T23:05:31.452Z,101122.09
2022-09-06T23:08:00.173Z,101130.25
2022-09-06T23:10:27.424Z,101117.38
2022-09-06T23:12:54.512Z,101123.69
2022-09-06T23:15:21.252Z,101123.69
2022-09-06T23:17:47.930Z,101120.78
2022-09-06T23:20:14.457Z,101106.88
2022-09-06T23:22:41.130Z,101107.41
2022-09-06T23:25:08.636Z,101103.72
2022-09-06T23:27:35.098Z,101107.94
2022-09-06T23:30:02.779Z,101116.63
2022-09-06T23:32:31.619Z,101100.31
2022-09-06T23:34:58.098Z,101114.78
2022-09-06T23:37:24.648Z,101099.31
2022-09-06T23:39:52.510Z,101097.72
2022-09-06T23:42:19.362Z,101104.28
2022-09-06T23:44:45.790Z,101095.38
2022-09-06T23:47:12.242Z,101099.03
2022-09-06T23:49:38.864Z,101096.16
2022-09-06T23:52:05.326Z,101095.38
2022-09-06T23:54:31.752Z,101086.44
2022-09-06T23:56:58.248Z,101085.63
2022-09-06T23:59:24.823Z,101086.72
